createdAt,value
2019-02-09T00:02:09.022Z,99615.25
2019-02-09T00:04:39.505Z,99607.91
2019-02-09T00:07:09.955Z,99610.34
2019-02-09T00:09:40.462Z,99602.45
2019-02-09T00:12:10.940Z,99603.05
2019-02-09T00:14:41.406Z,99592.85
2019-02-09T00:17:11.899Z,99599.88
2019-02-09T00:19:42.380Z,99599.06
2019-02-09T00:22:12.842Z,99586.47
2019-02-09T00:24:43.372Z,99589.81
2019-02-09T00:27:13.857Z,99573.49
2019-02-09T00:29:46.264Z,99569.50
2019-02-09T00:32:16.520Z,99562.06
2019-02-09T00:34:46.987Z,99557.47
2019-02-09T00:37:17.455Z,99558.41
2019-02-09T00:39:47.949Z,99557.84
2019-02-09T00:42:18.457Z,99556.06
2019-02-09T00:44:48.904Z,99548.26
2019-02-09T00:47:19.389Z,99541.66
2019-02-09T00:49:49.863Z,99543.69
2019-02-09T00:52:20.326Z,99531.83
2019-02-09T00:54:50.887Z,99536.53
2019-02-09T00:57:21.363Z,99522.47
2019-02-09T00:59:54.183Z,99531.48
2019-02-09T01:02:24.022Z,99527.02
2019-02-09T01:04:54.466Z,99516.63
2019-02-09T01:07:25.045Z,99520.19
2019-02-09T01:09:55.552Z,99512.97
2019-02-09T01:12:26.024Z,99523.80
2019-02-09T01:14:56.528Z,99517.98
2019-02-09T01:17:26.993Z,99510.16
2019-02-09T01:19:57.464Z,99507.58
2019-02-09T01:22:27.927Z,99506.07
2019-02-09T01:24:58.389Z,99500.90
2019-02-09T01:27:28.882Z,99509.84
2019-02-09T01:30:02.421Z,99492.62
2019-02-09T01:32:31.555Z,99504.95
2019-02-09T01:35:01.999Z,99487.45
2019-02-09T01:37:32.479Z,99494.38
2019-02-09T01:40:02.967Z,99482.30
2019-02-09T01:42:33.431Z,99495.87
2019-02-09T01:45:04.835Z,99494.92
2019-02-09T01:47:35.321Z,99479.15
2019-02-09T01:50:09.004Z,99476.80
2019-02-09T01:52:39.467Z,99469.53
2019-02-09T01:55:11.112Z,99468.86
2019-02-09T01:57:41.600Z,99459.14
2019-02-09T02:00:19.011Z,99454.36
2019-02-09T02:02:49.981Z,99462.49
2019-02-09T02:05:22.064Z,99450.36
2019-02-09T02:07:52.932Z,99449.49
2019-02-09T02:10:42.545Z,99450.95
2019-02-09T02:13:13.223Z,99443.01
2019-02-09T02:15:43.933Z,99450.30
2019-02-09T02:18:14.509Z,99444.71
2019-02-09T02:20:45.019Z,99445.75
2019-02-09T02:23:15.501Z,99443.73
2019-02-09T02:25:45.982Z,99442.73
2019-02-09T02:28:16.468Z,99438.03
2019-02-09T02:30:46.919Z,99425.12
2019-02-09T02:33:17.395Z,99430.20
2019-02-09T02:35:47.887Z,99418.58
2019-02-09T02:38:18.355Z,99406.56
2019-02-09T02:40:48.831Z,99407.41
2019-02-09T02:43:19.306Z,99392.95
2019-02-09T02:45:49.807Z,99391.19
2019-02-09T02:48:20.287Z,99392.50
2019-02-09T02:50:50.794Z,99396.16
2019-02-09T02:53:21.263Z,99367.79
2019-02-09T02:55:51.741Z,99365.28
2019-02-09T02:58:22.253Z,99376.45
2019-02-09T03:00:52.744Z,99365.28
2019-02-09T03:03:23.238Z,99352.81
2019-02-09T03:05:53.734Z,99363.38
2019-02-09T03:08:24.206Z,99361.08
2019-02-09T03:10:54.693Z,99353.19
2019-02-09T03:13:25.162Z,99352.91
2019-02-09T03:15:55.714Z,99337.77
2019-02-09T03:18:26.183Z,99337.63
2019-02-09T03:20:56.709Z,99351.14
2019-02-09T03:23:27.161Z,99345.33
2019-02-09T03:25:57.627Z,99352.07
2019-02-09T03:28:28.116Z,99352.16
2019-02-09T03:30:58.578Z,99350.06
2019-02-09T03:33:29.100Z,99349.39
2019-02-09T03:35:59.633Z,99347.44
2019-02-09T03:38:30.081Z,99342.17
2019-02-09T03:41:00.537Z,99337.95
2019-02-09T03:43:31.030Z,99330.87
2019-02-09T03:46:01.511Z,99327.10
2019-02-09T03:48:31.973Z,99341.70
2019-02-09T03:51:02.494Z,99338.55
2019-02-09T03:53:32.990Z,99350.71
2019-02-09T03:56:03.453Z,99336.40
2019-02-09T03:58:34.071Z,99330.02
2019-02-09T04:01:04.960Z,99325.19
2019-02-09T04:03:35.628Z,99328.66
2019-02-09T04:06:06.117Z,99319.80
2019-02-09T04:08:36.576Z,99320.82
2019-02-09T04:11:07.048Z,99310.87
2019-02-09T04:13:37.554Z,99310.08
2019-02-09T04:16:08.055Z,99314.81
2019-02-09T04:18:38.466Z,99308.95
2019-02-09T04:21:08.982Z,99320.16
2019-02-09T04:23:39.434Z,99318.48
2019-02-09T04:26:09.893Z,99314.30
2019-02-09T04:28:40.376Z,99306.13
2019-02-09T04:31:10.834Z,99314.16
2019-02-09T04:33:41.299Z,99299.14
2019-02-09T04:36:11.781Z,99288.53
2019-02-09T04:38:42.251Z,99296.04
2019-02-09T04:41:12.700Z,99298.67
2019-02-09T04:43:43.293Z,99295.00
2019-02-09T04:46:13.783Z,99293.45
2019-02-09T04:48:44.230Z,99287.87
2019-02-09T04:51:14.774Z,99289.95
2019-02-09T04:53:45.177Z,99284.55
2019-02-09T04:56:15.727Z,99291.77
2019-02-09T04:58:46.182Z,99289.37
2019-02-09T05:01:16.638Z,99296.59
2019-02-09T05:03:47.135Z,99296.55
2019-02-09T05:06:17.576Z,99288.72
2019-02-09T05:08:48.084Z,99306.31
2019-02-09T05:11:18.568Z,99284.48
2019-02-09T05:13:49.017Z,99281.89
2019-02-09T05:16:19.463Z,99289.23
2019-02-09T05:18:49.941Z,99271.19
2019-02-09T05:21:20.421Z,99286.23
2019-02-09T05:23:50.864Z,99287.91
2019-02-09T05:26:21.344Z,99284.77
2019-02-09T05:28:51.800Z,99273.89
2019-02-09T05:31:23.451Z,99279.19
2019-02-09T05:33:54.198Z,99291.67
2019-02-09T05:36:24.650Z,99279.52
2019-02-09T05:38:55.097Z,99285.38
2019-02-09T05:41:25.587Z,99290.30
2019-02-09T05:43:56.185Z,99286.73
2019-02-09T05:46:26.692Z,99289.70
2019-02-09T05:48:57.338Z,99281.48
2019-02-09T05:51:30.291Z,99278.16
2019-02-09T05:53:59.987Z,99281.38
2019-02-09T05:56:30.515Z,99275.09
2019-02-09T05:59:00.979Z,99271.19
2019-02-09T06:01:32.549Z,99270.61
2019-02-09T06:04:03.246Z,99276.96
2019-02-09T06:06:33.687Z,99275.42
2019-02-09T06:09:05.704Z,99282.84
2019-02-09T06:11:36.185Z,99282.80
2019-02-09T06:14:06.970Z,99274.44
2019-02-09T06:16:37.398Z,99300.06
2019-02-09T06:19:07.948Z,99315.94
2019-02-09T06:21:38.404Z,99333.48
2019-02-09T06:24:08.855Z,99321.45
2019-02-09T06:26:39.364Z,99319.70
2019-02-09T06:29:09.807Z,99311.80
2019-02-09T06:31:41.266Z,99309.59
2019-02-09T06:34:11.930Z,99301.08
2019-02-09T06:36:42.404Z,99304.55
2019-02-09T06:39:12.867Z,99308.73
2019-02-09T06:41:43.344Z,99300.69
2019-02-09T06:44:14.186Z,99311.16
2019-02-09T06:46:44.650Z,99300.94
2019-02-09T06:49:15.125Z,99298.92
2019-02-09T06:51:45.576Z,99308.22
2019-02-09T06:54:16.187Z,99317.41
2019-02-09T06:56:46.606Z,99311.83
2019-02-09T06:59:17.070Z,99323.42
2019-02-09T07:01:48.810Z,99312.71
2019-02-09T07:04:19.957Z,99318.62
2019-02-09T07:06:50.421Z,99315.19
2019-02-09T07:09:20.911Z,99310.41
2019-02-09T07:11:51.595Z,99318.94
2019-02-09T07:14:22.040Z,99315.95
2019-02-09T07:16:52.495Z,99308.05
2019-02-09T07:19:22.978Z,99309.36
2019-02-09T07:21:53.432Z,99323.95
2019-02-09T07:24:23.887Z,99321.25
2019-02-09T07:26:54.344Z,99321.69
2019-02-09T07:29:24.797Z,99322.28
2019-02-09T07:31:56.664Z,99331.76
2019-02-09T07:34:27.643Z,99332.79
2019-02-09T07:36:58.222Z,99337.30
2019-02-09T07:39:28.704Z,99341.34
2019-02-09T07:41:59.314Z,99341.73
2019-02-09T07:44:29.880Z,99340.02
2019-02-09T07:47:00.382Z,99338.08
2019-02-09T07:49:30.815Z,99354.41
2019-02-09T07:52:01.305Z,99341.69
2019-02-09T07:54:31.776Z,99337.14
2019-02-09T07:57:02.221Z,99349.20
2019-02-09T07:59:32.772Z,99360.23
2019-02-09T08:02:04.727Z,99361.89
2019-02-09T08:04:35.524Z,99353.34
2019-02-09T08:07:06.095Z,99351.23
2019-02-09T08:09:36.651Z,99353.25
2019-02-09T08:12:07.802Z,99352.59
2019-02-09T08:14:38.264Z,99352.13
2019-02-09T08:17:08.860Z,99347.42
2019-02-09T08:19:39.365Z,99353.34
2019-02-09T08:22:09.862Z,99368.51
2019-02-09T08:24:40.326Z,99366.02
2019-02-09T08:27:10.891Z,99367.98
2019-02-09T08:29:41.365Z,99374.61
2019-02-09T08:32:13.031Z,99363.67
2019-02-09T08:34:43.694Z,99365.97
2019-02-09T08:37:14.158Z,99357.62
2019-02-09T08:39:44.645Z,99359.10
2019-02-09T08:42:15.115Z,99355.10
2019-02-09T08:44:45.694Z,99357.92
2019-02-09T08:47:16.126Z,99369.14
2019-02-09T08:49:46.668Z,99354.16
2019-02-09T08:52:17.130Z,99354.77
2019-02-09T08:54:47.593Z,99346.22
2019-02-09T08:57:18.106Z,99366.05
2019-02-09T08:59:48.582Z,99349.60
2019-02-09T09:02:20.701Z,99389.59
2019-02-09T09:04:51.434Z,99390.73
2019-02-09T09:07:21.895Z,99382.22
2019-02-09T09:09:52.421Z,99390.85
2019-02-09T09:12:22.910Z,99389.13
2019-02-09T09:14:53.377Z,99377.55
2019-02-09T09:17:23.828Z,99388.08
2019-02-09T09:19:54.309Z,99398.19
2019-02-09T09:22:26.585Z,99398.20
2019-02-09T09:24:57.097Z,99401.70
2019-02-09T09:27:27.639Z,99398.27
2019-02-09T09:29:58.095Z,99378.27
2019-02-09T09:32:28.998Z,99399.65
2019-02-09T09:34:59.486Z,99397.41
2019-02-09T09:37:29.992Z,99398.66
2019-02-09T09:40:00.509Z,99413.47
2019-02-09T09:42:31.027Z,99400.90
2019-02-09T09:45:01.483Z,99404.37
2019-02-09T09:47:31.943Z,99391.02
2019-02-09T09:50:02.558Z,99402.87
2019-02-09T10:12:26.255Z,99415.27
2019-02-09T10:14:56.990Z,99425.50
2019-02-09T10:17:27.525Z,99427.22
2019-02-09T10:19:58.251Z,99418.93
2019-02-09T10:22:28.751Z,99429.25
2019-02-09T10:24:59.299Z,99428.81
2019-02-09T10:27:29.842Z,99433.14
2019-02-09T10:30:00.414Z,99423.98
2019-02-09T10:32:30.848Z,99434.49
2019-02-09T10:35:01.458Z,99439.77
2019-02-09T10:37:32.105Z,99437.48
2019-02-09T10:40:02.760Z,99425.53
2019-02-09T10:42:33.493Z,99418.77
2019-02-09T10:45:04.191Z,99438.86
2019-02-09T10:47:34.760Z,99442.05
2019-02-09T10:50:07.159Z,99425.70
2019-02-09T10:52:37.799Z,99428.41
2019-02-09T10:55:09.871Z,99430.23
2019-02-09T10:57:41.666Z,99425.83
2019-02-09T11:00:20.622Z,99428.16
2019-02-09T11:02:52.310Z,99426.17
2019-02-09T11:05:22.987Z,99422.17
2019-02-09T11:07:53.686Z,99427.38
2019-02-09T11:10:25.423Z,99427.66
2019-02-09T11:12:56.138Z,99422.89
2019-02-09T11:15:26.740Z,99439.48
2019-02-09T11:17:57.381Z,99436.19
2019-02-09T11:20:27.983Z,99426.01
2019-02-09T11:22:58.484Z,99429.79
2019-02-09T11:25:30.184Z,99431.13
2019-02-09T11:28:00.706Z,99426.87
2019-02-09T11:30:31.961Z,99437.31
2019-02-09T11:33:02.737Z,99422.28
2019-02-09T11:35:33.312Z,99425.42
2019-02-09T11:38:04.887Z,99420.28
2019-02-09T11:40:35.476Z,99427.27
2019-02-09T11:43:07.358Z,99428.66
2019-02-09T11:45:38.750Z,99425.83
2019-02-09T11:48:09.447Z,99423.92
2019-02-09T11:50:40.042Z,99416.89
2019-02-09T11:53:10.631Z,99408.95
2019-02-09T11:55:41.244Z,99414.43
2019-02-09T11:58:11.819Z,99415.41
2019-02-09T12:00:49.756Z,99410.33
2019-02-09T12:03:20.268Z,99404.38
2019-02-09T12:05:50.854Z,99408.84
2019-02-09T12:08:21.542Z,99410.47
2019-02-09T12:10:52.095Z,99404.73
2019-02-09T12:13:22.659Z,99408.86
2019-02-09T12:15:53.234Z,99405.20
2019-02-09T12:18:23.803Z,99412.13
2019-02-09T12:20:54.329Z,99408.45
2019-02-09T12:23:24.886Z,99406.47
2019-02-09T12:25:55.373Z,99422.95
2019-02-09T12:28:25.924Z,99411.94
2019-02-09T12:30:56.489Z,99416.70
2019-02-09T12:33:26.986Z,99412.04
2019-02-09T12:35:57.489Z,99404.48
2019-02-09T12:38:28.076Z,99407.47
2019-02-09T12:40:58.634Z,99416.70
2019-02-09T12:43:29.138Z,99413.38
2019-02-09T12:45:59.696Z,99419.35
2019-02-09T12:48:30.234Z,99413.55
2019-02-09T12:51:00.772Z,99391.28
2019-02-09T12:53:31.380Z,99408.25
2019-02-09T12:56:01.884Z,99400.53
2019-02-09T12:58:32.454Z,99402.69
2019-02-09T13:01:02.975Z,99400.53
2019-02-09T13:03:33.534Z,99406.86
2019-02-09T13:06:04.059Z,99406.73
2019-02-09T13:08:34.644Z,99400.94
2019-02-09T13:11:05.228Z,99410.82
2019-02-09T13:13:35.757Z,99402.75
2019-02-09T13:16:06.888Z,99408.85
2019-02-09T13:18:37.458Z,99415.91
2019-02-09T13:21:08.164Z,99405.87
2019-02-09T13:23:38.757Z,99413.09
2019-02-09T13:26:09.313Z,99406.83
2019-02-09T13:28:39.837Z,99403.05
2019-02-09T13:31:10.381Z,99393.95
2019-02-09T13:33:40.922Z,99405.20
2019-02-09T13:36:11.490Z,99408.78
2019-02-09T13:38:42.027Z,99412.74
2019-02-09T13:41:12.526Z,99403.54
2019-02-09T13:43:43.055Z,99397.28
2019-02-09T13:46:13.651Z,99390.02
2019-02-09T13:48:44.135Z,99411.25
2019-02-09T13:51:14.669Z,99407.47
2019-02-09T13:53:45.202Z,99404.84
2019-02-09T13:56:15.710Z,99405.19
2019-02-09T13:58:46.257Z,99397.60
2019-02-09T14:01:16.754Z,99408.45
2019-02-09T14:03:47.384Z,99414.74
2019-02-09T14:06:17.931Z,99411.11
2019-02-09T14:08:48.563Z,99408.34
2019-02-09T14:11:19.088Z,99405.05
2019-02-09T14:13:49.588Z,99417.77
2019-02-09T14:16:20.101Z,99422.53
2019-02-09T14:18:50.627Z,99441.14
2019-02-09T14:21:21.134Z,99462.39
2019-02-09T14:23:51.707Z,99452.00
2019-02-09T14:26:22.309Z,99442.50
2019-02-09T14:28:52.820Z,99465.28
2019-02-09T14:31:23.286Z,99471.74
2019-02-09T14:33:55.358Z,99479.11
2019-02-09T14:36:26.057Z,99470.66
2019-02-09T14:38:56.602Z,99486.11
2019-02-09T14:41:27.188Z,99513.65
2019-02-09T14:43:57.687Z,99494.08
2019-02-09T14:46:28.324Z,99528.94
2019-02-09T14:48:58.830Z,99522.00
2019-02-09T14:51:29.342Z,99542.70
2019-02-09T14:53:59.933Z,99547.55
2019-02-09T14:56:30.546Z,99510.32
2019-02-09T14:59:01.040Z,99521.56
2019-02-09T15:01:31.640Z,99516.31
2019-02-09T15:04:03.024Z,99517.62
2019-02-09T15:06:33.895Z,99529.84
2019-02-09T15:09:06.044Z,99529.45
2019-02-09T15:11:36.569Z,99537.20
2019-02-09T15:14:07.736Z,99525.18
2019-02-09T15:16:55.025Z,99532.50
2019-02-09T15:19:32.611Z,99541.45
2019-02-09T15:22:03.129Z,99536.14
2019-02-09T15:24:33.664Z,99548.66
2019-02-09T15:27:04.168Z,99543.41
2019-02-09T15:29:34.761Z,99541.60
2019-02-09T15:32:05.569Z,99545.46
2019-02-09T15:34:36.110Z,99559.97
2019-02-09T15:37:06.810Z,99550.31
2019-02-09T15:39:37.317Z,99553.02
2019-02-09T15:42:07.939Z,99560.25
2019-02-09T15:44:38.488Z,99559.84
2019-02-09T15:47:09.002Z,99568.13
2019-02-09T15:49:39.840Z,99557.77
2019-02-09T15:52:10.355Z,99567.03
2019-02-09T15:54:40.884Z,99561.38
2019-02-09T15:57:11.419Z,99567.86
2019-02-09T15:59:42.004Z,99562.95
2019-02-09T16:02:12.577Z,99567.09
2019-02-09T16:04:43.062Z,99564.73
2019-02-09T16:07:13.637Z,99566.00
2019-02-09T16:09:44.208Z,99564.59
2019-02-09T16:12:14.758Z,99577.13
2019-02-09T16:14:45.365Z,99570.05
2019-02-09T16:17:15.835Z,99557.23
2019-02-09T16:19:46.371Z,99566.20
2019-02-09T16:22:16.934Z,99574.49
2019-02-09T16:24:47.437Z,99574.00
2019-02-09T16:27:18.141Z,99570.81
2019-02-09T16:29:48.703Z,99583.75
2019-02-09T16:32:19.266Z,99579.72
2019-02-09T16:34:51.303Z,99581.23
2019-02-09T16:37:22.108Z,99581.09
2019-02-09T16:39:52.780Z,99584.80
2019-02-09T16:42:23.393Z,99582.17
2019-02-09T16:44:53.916Z,99593.32
2019-02-09T16:47:24.481Z,99587.02
2019-02-09T16:49:54.978Z,99600.90
2019-02-09T16:52:25.861Z,99591.77
2019-02-09T16:54:56.485Z,99606.66
2019-02-09T16:57:26.999Z,99601.88
2019-02-09T16:59:57.534Z,99604.64
2019-02-09T17:02:28.148Z,99628.95
2019-02-09T17:04:59.779Z,99634.23
2019-02-09T17:07:30.469Z,99649.45
2019-02-09T17:10:01.024Z,99638.88
2019-02-09T17:12:31.511Z,99647.09
2019-02-09T17:15:02.052Z,99662.86
2019-02-09T17:17:32.574Z,99657.72
2019-02-09T17:20:03.089Z,99669.83
2019-02-09T17:22:33.690Z,99672.77
2019-02-09T17:25:04.605Z,99677.05
2019-02-09T17:27:35.139Z,99688.09
2019-02-09T17:30:15.861Z,99682.50
2019-02-09T17:32:46.435Z,99688.64
2019-02-09T17:35:16.979Z,99686.35
2019-02-09T17:37:47.650Z,99695.66
2019-02-09T17:40:21.452Z,99699.47
2019-02-09T17:42:53.403Z,99713.81
2019-02-09T17:45:28.222Z,99734.72
2019-02-09T17:47:58.749Z,99716.61
2019-02-09T17:50:29.384Z,99724.17
2019-02-09T17:53:00.317Z,99712.95
2019-02-09T17:55:30.996Z,99705.02
2019-02-09T17:58:01.646Z,99716.35
2019-02-09T18:00:54.318Z,99721.38
2019-02-09T18:03:24.800Z,99719.85
2019-02-09T18:05:55.341Z,99726.34
2019-02-09T18:08:25.881Z,99720.01
2019-02-09T18:10:56.466Z,99719.16
2019-02-09T18:13:26.992Z,99725.19
2019-02-09T18:15:57.672Z,99714.88
2019-02-09T18:18:28.213Z,99722.85
2019-02-09T18:20:58.751Z,99723.38
2019-02-09T18:23:29.336Z,99730.84
2019-02-09T18:26:00.117Z,99729.15
2019-02-09T18:28:30.679Z,99731.14
2019-02-09T18:31:01.240Z,99740.41
2019-02-09T18:33:31.735Z,99738.13
2019-02-09T18:36:02.248Z,99751.22
2019-02-09T18:38:32.862Z,99739.97
2019-02-09T18:41:03.335Z,99750.93
2019-02-09T18:43:33.867Z,99746.66
2019-02-09T18:46:04.715Z,99746.74
2019-02-09T18:48:36.282Z,99746.66
2019-02-09T18:51:06.874Z,99746.36
2019-02-09T18:53:37.472Z,99745.82
2019-02-09T18:56:07.962Z,99745.62
2019-02-09T18:58:38.528Z,99751.84
2019-02-09T19:01:09.240Z,99756.55
2019-02-09T19:03:39.805Z,99765.82
2019-02-09T19:06:10.416Z,99769.84
2019-02-09T19:08:40.983Z,99766.25
2019-02-09T19:11:11.475Z,99760.23
2019-02-09T19:13:41.998Z,99771.80
2019-02-09T19:16:12.534Z,99777.94
2019-02-09T19:18:43.079Z,99764.72
2019-02-09T19:21:16.819Z,99776.41
2019-02-09T19:23:47.358Z,99782.42
2019-02-09T19:26:17.918Z,99780.69
2019-02-09T19:28:48.488Z,99789.28
2019-02-09T19:31:19.104Z,99788.47
2019-02-09T19:33:49.998Z,99792.63
2019-02-09T19:36:20.591Z,99802.03
2019-02-09T19:38:51.061Z,99808.41
2019-02-09T19:41:21.619Z,99811.30
2019-02-09T19:43:52.230Z,99806.67
2019-02-09T19:46:25.619Z,99811.88
2019-02-09T19:48:56.143Z,99809.67
2019-02-09T19:51:26.700Z,99812.93
2019-02-09T19:53:57.268Z,99816.50
2019-02-09T19:56:27.833Z,99818.87
2019-02-09T19:58:58.573Z,99818.87
2019-02-09T20:01:29.006Z,99825.73
2019-02-09T20:03:59.511Z,99823.23
2019-02-09T20:06:30.021Z,99835.36
2019-02-09T20:09:00.526Z,99835.12
2019-02-09T20:11:31.057Z,99827.67
2019-02-09T20:14:01.584Z,99831.89
2019-02-09T20:16:32.123Z,99851.89
2019-02-09T20:19:02.673Z,99849.33
2019-02-09T20:21:33.192Z,99858.95
2019-02-09T20:24:03.720Z,99849.41
2019-02-09T20:26:34.302Z,99852.72
2019-02-09T20:29:05.005Z,99867.18
2019-02-09T20:31:35.551Z,99865.66
2019-02-09T20:34:06.156Z,99863.23
2019-02-09T20:36:37.619Z,99866.55
2019-02-09T20:39:10.315Z,99875.91
2019-02-09T20:41:41.100Z,99870.56
2019-02-09T20:44:11.695Z,99890.22
2019-02-09T20:46:42.164Z,99877.91
2019-02-09T20:49:12.711Z,99879.70
2019-02-09T20:51:43.340Z,99894.33
2019-02-09T20:54:13.908Z,99883.03
2019-02-09T20:56:44.389Z,99892.52
2019-02-09T20:59:14.966Z,99891.20
2019-02-09T21:01:45.439Z,99894.61
2019-02-09T21:04:15.978Z,99897.86
2019-02-09T21:06:46.544Z,99910.44
2019-02-09T21:09:17.007Z,99901.86
2019-02-09T21:11:47.523Z,99906.48
2019-02-09T21:14:18.030Z,99912.39
2019-02-09T21:16:51.707Z,99895.06
2019-02-09T21:19:21.010Z,99916.54
2019-02-09T21:21:51.605Z,99909.49
2019-02-09T21:24:22.165Z,99906.22
2019-02-09T21:26:52.835Z,99917.23
2019-02-09T21:29:23.422Z,99906.91
2019-02-09T21:31:53.869Z,99906.30
2019-02-09T21:34:24.453Z,99914.80
2019-02-09T21:36:55.340Z,99919.38
2019-02-09T21:39:33.495Z,99915.77
2019-02-09T21:41:59.063Z,99914.88
2019-02-09T21:44:29.679Z,99920.83
2019-02-09T21:47:00.248Z,99915.43
2019-02-09T21:49:30.848Z,99928.51
2019-02-09T21:52:01.364Z,99923.30
2019-02-09T22:05:08.719Z,99932.25
2019-02-09T22:07:39.260Z,99937.85
2019-02-09T22:10:12.570Z,99935.22
2019-02-09T22:12:44.086Z,99949.61
2019-02-09T22:15:14.990Z,99940.87
2019-02-09T22:17:45.564Z,99945.58
2019-02-09T22:20:17.575Z,99942.83
2019-02-09T22:22:48.768Z,99945.88
2019-02-09T22:25:21.684Z,99945.58
2019-02-09T22:27:55.269Z,99942.61
2019-02-09T22:30:28.254Z,99935.61
2019-02-09T22:32:59.716Z,99946.13
2019-02-09T22:35:30.973Z,99946.65
2019-02-09T22:38:01.612Z,99941.34
2019-02-09T22:40:34.372Z,99943.89
2019-02-09T22:43:06.147Z,99953.43
2019-02-09T22:45:37.022Z,99954.41
2019-02-09T22:48:09.660Z,99959.02
2019-02-09T22:50:43.876Z,99953.55
2019-02-09T22:53:14.531Z,99960.17
2019-02-09T22:55:45.645Z,99954.02
2019-02-09T22:58:16.200Z,99950.66
2019-02-09T23:01:37.050Z,99958.45
2019-02-09T23:05:00.552Z,99952.09
2019-02-09T23:07:34.156Z,99964.43
2019-02-09T23:10:10.593Z,99956.00
2019-02-09T23:12:48.312Z,99961.26
2019-02-09T23:15:13.377Z,99970.80
2019-02-09T23:17:43.944Z,99969.73
2019-02-09T23:20:14.536Z,99971.34
2019-02-09T23:22:45.025Z,99971.63
2019-02-09T23:25:15.561Z,99965.72
2019-02-09T23:27:46.081Z,99964.75
2019-02-09T23:30:16.647Z,99963.37
2019-02-09T23:32:47.110Z,99968.76
2019-02-09T23:35:17.656Z,99967.38
2019-02-09T23:37:48.187Z,99964.06
2019-02-09T23:40:18.821Z,99963.75
2019-02-09T23:42:49.320Z,99960.12
2019-02-09T23:45:19.920Z,99966.75
2019-02-09T23:47:50.437Z,99966.97
2019-02-09T23:50:21.005Z,99961.80
2019-02-09T23:52:51.528Z,99968.08
2019-02-09T23:55:22.115Z,99970.11
2019-02-09T23:57:52.683Z,99972.11
